Time;durP1;ratioP1;P1;durP2;ratioP2;P2;SDS_P1;SDS_P2;PMS_P1;PMS_P2;Temp;Humidity;BMP_temperature;BMP_pressure;BME280_temperature;BME280_humidity;BME280_pressure;Samples;Min_cycle;Max_cycle;Signal;HPM_P1;HPM_P2
2021/12/11 00:01:16;;;;;;;3.78;2.67;;;15.90;43.70;;;;;;5082357;28;20016;-42
2021/12/11 00:03:44;;;;;;;3.13;2.60;;;15.90;43.70;;;;;;5100386;28;20020;-44
2021/12/11 00:06:23;;;;;;;3.08;2.30;;;15.80;43.70;;;;;;5100069;28;20015;-41
2021/12/11 00:08:52;;;;;;;3.08;2.50;;;15.80;43.80;;;;;;5098878;28;20103;-41
2021/12/11 00:11:29;;;;;;;3.45;2.63;;;15.80;43.80;;;;;;5098895;28;20020;-41
2021/12/11 00:13:58;;;;;;;3.97;2.83;;;15.80;43.90;;;;;;5098348;28;20008;-40
2021/12/11 00:16:26;;;;;;;4.07;2.60;;;15.80;44.00;;;;;;5097812;28;20093;-38
2021/12/11 00:18:53;;;;;;;3.20;2.60;;;15.80;44.00;;;;;;5063455;28;20047;-38
2021/12/11 00:21:19;;;;;;;3.20;2.40;;;15.70;44.00;;;;;;5079658;28;20020;-39
2021/12/11 00:23:51;;;;;;;2.80;2.40;;;15.70;44.00;;;;;;5100587;28;20036;-38
2021/12/11 00:26:30;;;;;;;3.90;2.67;;;15.80;44.10;;;;;;5101532;28;20069;-40
2021/12/11 00:28:56;;;;;;;3.75;2.53;;;15.70;44.10;;;;;;5101493;28;20043;-39
2021/12/11 00:31:22;;;;;;;2.80;2.33;;;15.70;44.20;;;;;;5083297;28;20016;-38
2021/12/11 00:33:48;;;;;;;3.45;2.35;;;15.70;44.20;;;;;;5100507;28;20016;-38
2021/12/11 00:36:16;;;;;;;3.47;2.78;;;15.70;44.20;;;;;;5082513;28;20055;-43
2021/12/11 00:38:42;;;;;;;4.82;2.58;;;15.80;44.30;;;;;;5101192;28;20474;-38
2021/12/11 00:41:10;;;;;;;2.60;2.22;;;15.70;44.30;;;;;;5100405;28;20019;-39
2021/12/11 00:43:37;;;;;;;3.40;2.60;;;15.70;44.30;;;;;;5100650;28;20008;-39
2021/12/11 00:46:05;;;;;;;3.05;2.40;;;15.70;44.30;;;;;;5100999;28;20027;-40
2021/12/11 00:48:32;;;;;;;3.65;2.70;;;15.70;44.40;;;;;;5101185;28;20039;-39
2021/12/11 00:50:59;;;;;;;3.70;2.75;;;15.70;44.50;;;;;;5101742;28;20014;-40
2021/12/11 00:53:29;;;;;;;3.55;2.75;;;15.70;44.50;;;;;;5101289;28;20502;-39
2021/12/11 00:55:57;;;;;;;3.35;2.58;;;15.60;44.50;;;;;;5101626;28;20072;-39
2021/12/11 00:58:26;;;;;;;3.22;2.55;;;15.60;44.50;;;;;;5101487;28;20012;-38
2021/12/11 01:01:08;;;;;;;3.78;2.60;;;15.70;44.60;;;;;;5083132;28;20023;-40
2021/12/11 01:03:46;;;;;;;3.10;2.60;;;15.70;44.60;;;;;;5101268;28;20020;-39
2021/12/11 01:06:21;;;;;;;3.22;2.40;;;15.60;44.70;;;;;;5083285;28;20039;-41
2021/12/11 01:08:57;;;;;;;4.50;2.80;;;15.60;44.70;;;;;;5084711;28;20087;-40
2021/12/11 01:11:37;;;;;;;3.20;2.60;;;15.60;44.80;;;;;;5101983;28;20027;-38
2021/12/11 01:14:19;;;;;;;3.00;2.60;;;15.60;44.80;;;;;;5102830;28;20036;-37
2021/12/11 01:16:58;;;;;;;3.13;2.50;;;15.60;44.80;;;;;;5101617;28;20036;-38
2021/12/11 01:19:25;;;;;;;3.33;2.55;;;15.60;44.90;;;;;;5102324;28;20038;-39
2021/12/11 01:21:58;;;;;;;3.22;2.83;;;15.60;44.90;;;;;;5066520;28;20004;-39
2021/12/11 01:24:30;;;;;;;4.15;2.70;;;15.60;44.90;;;;;;5083906;28;20027;-38
2021/12/11 01:26:59;;;;;;;3.65;2.60;;;15.60;45.00;;;;;;5100024;28;20008;-39
2021/12/11 01:29:27;;;;;;;3.40;2.60;;;15.60;45.00;;;;;;5100270;28;20028;-38
2021/12/11 01:31:55;;;;;;;3.58;2.58;;;15.60;45.00;;;;;;5100497;28;20012;-40
2021/12/11 01:34:22;;;;;;;3.45;2.70;;;15.50;45.10;;;;;;5098998;28;20077;-38
2021/12/11 01:36:48;;;;;;;3.70;2.70;;;15.50;45.20;;;;;;5099811;28;20023;-39
2021/12/11 01:39:19;;;;;;;2.88;2.30;;;15.50;45.20;;;;;;5099388;28;20016;-38
2021/12/11 01:41:46;;;;;;;3.53;2.65;;;15.60;45.30;;;;;;5081749;28;20016;-38
2021/12/11 01:44:14;;;;;;;3.15;2.42;;;15.50;45.30;;;;;;5099953;28;20020;-40
2021/12/11 01:46:41;;;;;;;3.75;2.60;;;15.50;45.30;;;;;;5100327;28;20042;-39
2021/12/11 01:49:12;;;;;;;3.53;2.60;;;15.50;45.40;;;;;;5100398;28;20024;-39
2021/12/11 01:51:41;;;;;;;3.30;2.60;;;15.50;45.50;;;;;;5100297;28;20046;-39
2021/12/11 01:54:24;;;;;;;3.03;2.30;;;15.50;45.50;;;;;;5099225;28;20425;-39
2021/12/11 01:57:00;;;;;;;3.10;2.33;;;15.50;45.70;;;;;;5100005;28;20498;-40
2021/12/11 01:59:32;;;;;;;3.20;2.20;;;15.50;45.80;;;;;;5099815;28;20024;-41
2021/12/11 02:02:33;;;;;;;2.88;2.20;;;15.50;45.80;;;;;;5082308;28;20099;-38
2021/12/11 02:04:59;;;;;;;2.88;2.13;;;15.40;45.90;;;;;;5099844;28;20016;-38
2021/12/11 02:07:38;;;;;;;2.65;2.20;;;15.40;45.90;;;;;;5082017;28;20027;-39
2021/12/11 02:10:10;;;;;;;3.10;2.30;;;15.50;46.10;;;;;;5099377;28;20093;-39
2021/12/11 02:12:39;;;;;;;4.35;2.13;;;15.40;46.10;;;;;;5081922;28;20008;-39
2021/12/11 02:15:11;;;;;;;3.60;2.40;;;15.50;46.30;;;;;;5099443;28;20028;-39
2021/12/11 02:18:08;;;;;;;2.88;2.13;;;15.50;46.30;;;;;;5099072;28;20079;-39
2021/12/11 02:20:41;;;;;;;3.30;2.05;;;15.40;46.40;;;;;;5099477;28;20008;-39
2021/12/11 02:23:07;;;;;;;3.63;2.00;;;15.40;46.40;;;;;;5082571;28;20012;-38
2021/12/11 02:25:39;;;;;;;3.33;2.15;;;15.40;46.50;;;;;;5081099;28;20470;-38
2021/12/11 02:28:27;;;;;;;3.58;2.05;;;15.40;46.50;;;;;;5099309;28;20023;-41
2021/12/11 02:31:04;;;;;;;2.67;2.08;;;15.40;46.60;;;;;;5063931;28;20054;-38
2021/12/11 02:33:39;;;;;;;2.75;2.00;;;15.40;46.70;;;;;;5079840;28;20012;-38
2021/12/11 02:36:11;;;;;;;3.35;1.90;;;15.40;46.70;;;;;;5099137;28;20028;-38
2021/12/11 02:38:59;;;;;;;2.50;1.73;;;15.40;46.70;;;;;;5081143;28;20811;-38
2021/12/11 02:41:34;;;;;;;3.40;2.08;;;15.40;46.80;;;;;;5099625;28;20024;-38
2021/12/11 02:44:07;;;;;;;3.28;1.95;;;15.40;46.80;;;;;;5099017;28;20038;-39
2021/12/11 02:47:00;;;;;;;3.28;1.88;;;15.40;46.90;;;;;;5099419;28;20091;-38
2021/12/11 02:49:30;;;;;;;3.03;1.83;;;15.40;46.90;;;;;;5098820;28;20531;-39
2021/12/11 02:52:20;;;;;;;3.55;1.85;;;15.40;47.00;;;;;;5099193;28;20020;-40
2021/12/11 02:55:15;;;;;;;3.67;1.98;;;15.30;47.00;;;;;;5080566;28;20020;-40
2021/12/11 02:57:47;;;;;;;3.20;1.77;;;15.40;47.00;;;;;;5097931;28;20040;-38
2021/12/11 03:00:22;;;;;;;2.55;1.80;;;15.40;47.10;;;;;;5098753;28;20012;-38
2021/12/11 03:02:50;;;;;;;4.00;1.95;;;15.40;47.10;;;;;;5099024;28;20023;-39
2021/12/11 03:05:19;;;;;;;3.05;1.60;;;15.30;47.20;;;;;;5081141;28;20020;-38
2021/12/11 03:07:50;;;;;;;3.00;1.80;;;15.40;47.30;;;;;;5097911;28;20023;-39
2021/12/11 03:10:18;;;;;;;3.40;1.70;;;15.40;47.40;;;;;;5081252;28;20043;-38
2021/12/11 03:12:45;;;;;;;3.90;2.00;;;15.30;47.50;;;;;;5079370;28;20012;-38
2021/12/11 03:15:11;;;;;;;3.42;1.80;;;15.30;47.50;;;;;;5078780;28;20020;-39
2021/12/11 03:17:38;;;;;;;4.85;2.10;;;15.30;47.60;;;;;;5079389;28;20058;-39
2021/12/11 03:20:06;;;;;;;3.95;1.63;;;15.30;47.70;;;;;;5096935;28;20016;-38
2021/12/11 03:22:33;;;;;;;2.95;1.50;;;15.30;47.70;;;;;;5097698;28;20084;-38
2021/12/11 03:25:01;;;;;;;4.18;1.70;;;15.30;47.70;;;;;;5079699;28;20024;-39
2021/12/11 03:27:27;;;;;;;3.63;1.60;;;15.30;47.80;;;;;;5079462;28;20043;-40
2021/12/11 03:29:52;;;;;;;4.03;1.73;;;15.30;47.90;;;;;;5061610;28;20047;-39
2021/12/11 03:32:18;;;;;;;3.47;1.52;;;15.30;47.90;;;;;;5096913;28;20024;-40
2021/12/11 03:34:45;;;;;;;2.92;1.67;;;15.30;47.90;;;;;;5096387;28;20023;-39
2021/12/11 03:37:11;;;;;;;3.22;1.58;;;15.30;48.00;;;;;;5096721;28;20028;-40
2021/12/11 03:39:39;;;;;;;3.22;1.60;;;15.30;48.10;;;;;;5097228;28;20032;-39
2021/12/11 03:42:12;;;;;;;3.50;1.70;;;15.30;48.00;;;;;;5095595;28;20016;-39
2021/12/11 03:44:38;;;;;;;3.20;1.48;;;15.30;48.10;;;;;;5095573;28;20020;-39
2021/12/11 03:47:13;;;;;;;3.10;1.50;;;15.30;48.20;;;;;;5096040;28;20044;-38
2021/12/11 03:49:39;;;;;;;3.95;1.60;;;15.30;48.30;;;;;;5096664;28;20009;-39
2021/12/11 03:52:06;;;;;;;4.38;1.60;;;15.30;48.30;;;;;;5078405;28;20047;-37
2021/12/11 03:54:33;;;;;;;3.70;1.70;;;15.30;48.30;;;;;;5078173;28;20458;-36
2021/12/11 03:56:59;;;;;;;3.90;1.58;;;15.30;48.40;;;;;;5078219;28;20111;-39
2021/12/11 03:59:25;;;;;;;4.07;1.92;;;15.30;48.40;;;;;;5099521;28;20123;-38
2021/12/11 04:01:56;;;;;;;3.53;1.70;;;15.30;48.40;;;;;;5099711;28;20091;-37
2021/12/11 04:04:27;;;;;;;;;;;15.30;48.40;;;;;;5100986;28;20558;-38
2021/12/11 04:06:54;;;;;;;3.80;1.45;;;15.30;48.50;;;;;;5101519;28;20346;-38
2021/12/11 04:09:20;;;;;;;3.85;1.80;;;15.20;48.50;;;;;;5101699;28;20038;-38
2021/12/11 04:11:47;;;;;;;4.82;1.60;;;15.30;48.60;;;;;;5066933;28;20028;-37
2021/12/11 04:14:16;;;;;;;3.72;1.58;;;15.30;48.60;;;;;;5102147;28;20118;-39
2021/12/11 04:16:42;;;;;;;4.00;1.67;;;15.20;48.60;;;;;;5101227;28;20125;-37
2021/12/11 04:19:09;;;;;;;4.57;1.65;;;15.30;48.60;;;;;;5101719;28;20023;-38
2021/12/11 04:21:35;;;;;;;3.40;1.40;;;15.30;48.60;;;;;;5082774;28;20012;-38
2021/12/11 04:24:01;;;;;;;5.50;1.50;;;15.20;48.60;;;;;;5082241;28;20019;-38
2021/12/11 04:26:27;;;;;;;4.32;1.70;;;15.20;48.70;;;;;;5081443;28;20505;-38
2021/12/11 04:28:53;;;;;;;4.75;1.70;;;15.20;48.80;;;;;;5081949;28;20031;-38
2021/12/11 04:31:22;;;;;;;3.88;1.58;;;15.20;48.70;;;;;;5082071;28;20031;-38
2021/12/11 04:33:49;;;;;;;3.83;1.50;;;15.20;48.70;;;;;;5081851;28;20022;-38
2021/12/11 04:36:23;;;;;;;5.28;1.70;;;15.20;48.60;;;;;;5099493;28;20549;-38
2021/12/11 04:38:49;;;;;;;3.22;1.50;;;15.20;48.80;;;;;;5098787;28;20095;-37
2021/12/11 04:41:19;;;;;;;4.18;1.38;;;15.20;48.90;;;;;;5080704;28;20039;-38
2021/12/11 04:43:45;;;;;;;3.88;1.60;;;15.20;48.90;;;;;;5099028;28;20008;-38
2021/12/11 04:46:12;;;;;;;4.10;1.60;;;15.10;48.90;;;;;;5080540;28;20027;-37
2021/12/11 05:00:05;;;;;;;4.18;1.60;;;15.10;49.00;;;;;;5080863;28;20030;-37
2021/12/11 05:02:17;;;;;;;5.88;1.50;;;15.20;48.90;;;;;;5080084;28;20032;-38
2021/12/11 05:10:34;;;;;;;5.00;1.70;;;15.10;49.00;;;;;;5031892;28;20021;-38
2021/12/11 05:13:00;;;;;;;3.10;1.38;;;15.20;49.10;;;;;;5082219;28;20111;-38
2021/12/11 05:15:37;;;;;;;4.85;1.48;;;15.10;49.20;;;;;;5099034;28;20024;-39
2021/12/11 05:18:05;;;;;;;4.57;1.70;;;15.10;49.30;;;;;;5098856;28;20059;-38
2021/12/11 05:20:32;;;;;;;4.57;1.52;;;15.10;49.20;;;;;;5081003;28;20465;-37
2021/12/11 05:22:58;;;;;;;4.38;1.55;;;15.10;49.30;;;;;;5098502;28;20016;-39
2021/12/11 05:25:24;;;;;;;4.70;1.45;;;15.10;49.10;;;;;;5098615;28;20024;-39
2021/12/11 05:27:50;;;;;;;5.57;1.63;;;15.10;49.30;;;;;;5080948;28;20008;-38
2021/12/11 05:30:19;;;;;;;5.60;1.55;;;15.10;49.40;;;;;;5081571;28;20052;-38
2021/12/11 05:32:45;;;;;;;5.45;1.80;;;15.10;49.10;;;;;;5081826;28;20040;-38
2021/12/11 05:35:10;;;;;;;5.63;1.70;;;15.10;49.20;;;;;;5100054;28;20382;-40
2021/12/11 05:37:36;;;;;;;4.60;1.33;;;15.10;49.30;;;;;;5081163;28;20474;-38
2021/12/11 05:40:04;;;;;;;5.18;1.70;;;15.10;49.40;;;;;;5098818;28;20549;-37
2021/12/11 05:42:30;;;;;;;4.30;1.35;;;15.10;49.30;;;;;;5098371;28;20036;-38
2021/12/11 05:44:55;;;;;;;5.15;1.52;;;15.10;49.30;;;;;;5098752;28;20023;-38
2021/12/11 05:47:21;;;;;;;4.75;1.60;;;15.10;49.30;;;;;;5047304;28;20157;-39
2021/12/11 05:49:48;;;;;;;5.03;1.33;;;15.00;49.40;;;;;;5098836;28;20509;-40
2021/12/11 05:52:14;;;;;;;4.43;1.38;;;15.00;49.40;;;;;;5081088;28;20021;-38
2021/12/11 05:54:41;;;;;;;4.93;1.77;;;15.00;49.60;;;;;;5080710;28;20016;-38
2021/12/11 05:57:09;;;;;;;5.20;1.60;;;15.10;49.50;;;;;;5080652;28;20028;-39
2021/12/11 05:59:35;;;;;;;4.60;1.45;;;15.00;49.60;;;;;;5098649;28;20008;-38
2021/12/11 06:02:07;;;;;;;4.78;1.70;;;15.00;49.50;;;;;;5098819;28;20023;-39
2021/12/11 06:04:34;;;;;;;4.97;2.00;;;15.00;49.60;;;;;;5098593;28;20012;-38
2021/12/11 06:07:00;;;;;;;3.95;1.30;;;15.00;49.60;;;;;;5099521;28;20027;-39
2021/12/11 06:09:26;;;;;;;4.15;1.60;;;15.00;49.60;;;;;;5081334;28;20044;-40
2021/12/11 06:11:57;;;;;;;6.88;1.45;;;15.10;49.50;;;;;;5080669;28;20027;-39
2021/12/11 06:14:22;;;;;;;4.63;1.48;;;15.00;49.50;;;;;;5098508;28;20026;-40
2021/12/11 06:16:51;;;;;;;3.90;1.40;;;15.00;49.60;;;;;;5080631;28;20092;-39
2021/12/11 06:19:20;;;;;;;5.55;1.60;;;15.00;49.60;;;;;;5081129;28;20008;-39
2021/12/11 06:21:46;;;;;;;5.10;1.60;;;15.00;50.10;;;;;;5080799;28;20016;-38
2021/12/11 06:24:12;;;;;;;3.58;1.48;;;15.10;49.50;;;;;;5098716;28;20505;-41
2021/12/11 06:26:38;;;;;;;4.30;1.40;;;15.10;49.40;;;;;;5081602;28;20028;-40
2021/12/11 06:29:06;;;;;;;3.85;1.42;;;15.10;49.30;;;;;;5098440;28;20069;-39
2021/12/11 06:31:32;;;;;;;5.43;1.70;;;15.10;49.30;;;;;;5099329;28;20024;-39
2021/12/11 06:33:58;;;;;;;4.45;1.25;;;15.10;49.30;;;;;;5082349;28;20016;-39
2021/12/11 06:36:24;;;;;;;3.95;1.40;;;15.10;49.30;;;;;;5100046;28;20036;-40
2021/12/11 06:38:57;;;;;;;4.63;1.58;;;15.10;49.30;;;;;;5064637;28;20020;-39
2021/12/11 06:41:25;;;;;;;4.43;1.50;;;15.10;49.20;;;;;;5098722;28;20016;-41
2021/12/11 06:43:51;;;;;;;4.60;1.48;;;15.10;49.30;;;;;;5064636;28;20027;-38
2021/12/11 06:46:17;;;;;;;5.75;1.60;;;15.10;49.40;;;;;;5099060;28;20020;-39
2021/12/11 06:48:43;;;;;;;7.00;1.95;;;15.10;49.30;;;;;;5099519;28;20017;-39
2021/12/11 06:51:09;;;;;;;5.45;1.83;;;15.00;49.30;;;;;;5098634;28;20520;-39
2021/12/11 06:53:39;;;;;;;5.18;1.50;;;15.10;49.30;;;;;;5099448;28;20107;-40
2021/12/11 06:56:06;;;;;;;5.78;1.58;;;15.10;49.40;;;;;;5081490;28;20022;-38
2021/12/11 06:58:32;;;;;;;4.18;1.55;;;15.00;49.40;;;;;;5099411;28;20466;-40
2021/12/11 07:00:58;;;;;;;2.97;1.33;;;15.10;49.40;;;;;;5080438;28;20490;-38
2021/12/11 07:03:24;;;;;;;6.30;1.70;;;15.00;49.40;;;;;;5079645;28;20359;-39
2021/12/11 07:05:50;;;;;;;3.45;1.33;;;15.00;49.30;;;;;;5080259;28;20031;-42
2021/12/11 07:08:17;;;;;;;5.45;1.50;;;15.00;49.40;;;;;;5097847;28;20374;-40
2021/12/11 07:10:46;;;;;;;5.22;1.55;;;15.00;49.50;;;;;;5080572;28;20043;-41
2021/12/11 07:13:12;;;;;;;4.47;1.50;;;15.00;49.40;;;;;;5097751;28;20012;-39
2021/12/11 07:15:41;;;;;;;4.63;1.52;;;14.90;49.40;;;;;;5096701;28;20091;-40
2021/12/11 07:18:07;;;;;;;4.00;1.52;;;15.00;49.40;;;;;;5079412;28;20016;-38
2021/12/11 07:20:33;;;;;;;5.63;1.65;;;15.00;49.40;;;;;;5079205;28;20040;-41
2021/12/11 07:22:59;;;;;;;4.18;1.33;;;15.00;49.30;;;;;;5078539;28;20378;-39
2021/12/11 07:25:54;;;;;;;6.00;1.63;;;15.00;49.10;;;;;;5078567;28;20028;-42
2021/12/11 07:28:29;;;;;;;5.70;1.65;;;15.00;49.30;;;;;;5087241;28;20481;-38
2021/12/11 07:31:06;;;;;;;5.72;1.63;;;15.00;49.10;;;;;;5093539;28;20044;-38
2021/12/11 07:33:31;;;;;;;5.13;1.63;;;15.00;49.20;;;;;;5097232;28;20035;-40
2021/12/11 07:35:57;;;;;;;4.80;1.40;;;15.00;49.60;;;;;;5097687;28;20020;-41
2021/12/11 07:38:23;;;;;;;4.85;1.80;;;15.00;49.10;;;;;;5062525;28;20020;-39
2021/12/11 07:40:54;;;;;;;5.63;1.60;;;15.00;49.20;;;;;;5078868;28;20016;-44
2021/12/11 07:43:21;;;;;;;4.95;1.50;;;15.00;49.10;;;;;;5097060;28;20016;-42
2021/12/11 07:45:48;;;;;;;5.13;1.50;;;15.00;49.20;;;;;;5097596;28;20016;-39
2021/12/11 07:48:14;;;;;;;3.70;1.40;;;14.90;49.10;;;;;;5078438;28;20028;-40
2021/12/11 07:50:40;;;;;;;4.70;1.63;;;15.00;49.20;;;;;;5095809;28;20095;-40
2021/12/11 07:53:06;;;;;;;4.95;1.50;;;14.90;49.10;;;;;;5094982;28;20050;-39
2021/12/11 07:55:32;;;;;;;3.60;1.48;;;15.00;49.10;;;;;;5095468;28;20027;-38
2021/12/11 07:57:59;;;;;;;3.70;1.40;;;15.00;49.00;;;;;;5095912;28;20126;-39
2021/12/11 08:00:25;;;;;;;3.50;1.17;;;15.00;49.00;;;;;;5095489;28;20462;-39
2021/12/11 08:02:51;;;;;;;4.05;1.33;;;15.00;49.10;;;;;;5095577;28;20016;-40
2021/12/11 08:05:18;;;;;;;5.18;1.73;;;14.90;49.10;;;;;;5095998;28;20021;-40
2021/12/11 08:07:43;;;;;;;4.38;1.50;;;15.00;49.00;;;;;;5095152;28;20028;-39
2021/12/11 08:10:13;;;;;;;5.65;1.65;;;15.00;49.10;;;;;;5094087;28;20383;-41
2021/12/11 08:12:40;;;;;;;4.32;1.60;;;14.90;49.10;;;;;;5094066;28;20099;-39
2021/12/11 08:15:06;;;;;;;3.65;1.35;;;14.90;49.10;;;;;;5094018;28;20016;-38
2021/12/11 08:17:32;;;;;;;5.35;1.67;;;14.90;49.20;;;;;;5075861;28;20081;-38
2021/12/11 08:19:58;;;;;;;6.38;1.45;;;14.90;49.20;;;;;;5094454;28;20016;-38
2021/12/11 08:22:24;;;;;;;3.92;1.50;;;14.90;49.10;;;;;;5076850;28;20008;-39
2021/12/11 08:24:50;;;;;;;5.30;1.60;;;15.00;49.00;;;;;;5095051;28;20008;-41
2021/12/11 08:27:18;;;;;;;4.32;1.65;;;15.00;48.90;;;;;;5095203;28;20020;-39
2021/12/11 08:29:47;;;;;;;4.03;1.30;;;15.00;48.70;;;;;;5094728;28;20012;-38
2021/12/11 08:32:13;;;;;;;4.53;1.60;;;15.10;48.50;;;;;;5077337;28;20012;-39
2021/12/11 08:34:39;;;;;;;4.53;1.70;;;15.20;48.10;;;;;;5076231;28;20023;-38
2021/12/11 08:37:07;;;;;;;3.70;1.40;;;15.40;47.50;;;;;;5076537;28;20036;-39
2021/12/11 08:39:33;;;;;;;3.72;1.38;;;15.60;47.30;;;;;;5095068;28;20008;-38
2021/12/11 08:42:00;;;;;;;5.03;1.63;;;15.70;46.90;;;;;;5060379;28;20024;-39
2021/12/11 08:44:28;;;;;;;5.60;1.50;;;15.80;46.60;;;;;;5097411;28;20015;-38
2021/12/11 08:46:57;;;;;;;5.38;1.73;;;15.90;46.30;;;;;;5081761;28;20040;-38
2021/12/11 08:49:28;;;;;;;4.82;1.58;;;16.10;46.20;;;;;;5098995;28;20471;-38
2021/12/11 08:52:00;;;;;;;5.28;2.08;;;16.10;46.10;;;;;;5098373;28;20016;-39
2021/12/11 08:54:27;;;;;;;4.35;1.40;;;16.20;45.80;;;;;;5099335;28;20012;-39
2021/12/11 08:56:54;;;;;;;3.97;1.42;;;16.20;45.70;;;;;;5098681;28;20725;-38
2021/12/11 08:59:22;;;;;;;3.20;1.35;;;16.30;45.60;;;;;;5098697;28;20086;-38
2021/12/11 09:01:51;;;;;;;3.60;1.65;;;16.30;45.40;;;;;;5098097;28;20095;-39
2021/12/11 09:04:19;;;;;;;4.00;1.50;;;16.40;45.20;;;;;;5098224;28;20023;-38
2021/12/11 09:06:50;;;;;;;5.75;1.70;;;16.40;45.00;;;;;;5080893;28;20028;-39
2021/12/11 09:09:27;;;;;;;4.35;1.70;;;16.50;44.90;;;;;;5097789;28;20404;-39
2021/12/11 09:12:03;;;;;;;3.95;1.50;;;16.60;44.70;;;;;;5098252;28;20028;-39
2021/12/11 09:14:31;;;;;;;4.15;1.45;;;16.60;44.50;;;;;;5098228;28;20035;-38
2021/12/11 09:17:08;;;;;;;4.93;2.03;;;16.80;44.30;;;;;;5098003;28;20490;-38
2021/12/11 09:19:36;;;;;;;3.83;1.35;;;16.80;44.10;;;;;;5098474;28;20008;-39
2021/12/11 09:22:07;;;;;;;3.65;1.30;;;16.90;43.90;;;;;;5097708;28;20012;-38
2021/12/11 09:24:42;;;;;;;2.75;1.35;;;16.90;43.80;;;;;;5097585;28;20019;-38
2021/12/11 09:27:13;;;;;;;3.78;1.50;;;17.00;43.70;;;;;;5080657;28;20024;-40
2021/12/11 09:29:46;;;;;;;3.80;1.30;;;17.00;43.50;;;;;;5098187;28;20081;-39
2021/12/11 09:32:28;;;;;;;4.97;1.67;;;17.00;43.40;;;;;;5079985;28;20024;-38
2021/12/11 09:34:59;;;;;;;4.32;1.50;;;17.10;43.40;;;;;;5099304;28;20020;-39
2021/12/11 09:37:27;;;;;;;3.90;1.50;;;17.10;43.20;;;;;;5099634;28;20085;-38
2021/12/11 09:40:12;;;;;;;3.13;1.33;;;17.20;43.10;;;;;;5100116;28;20023;-39
2021/12/11 09:42:38;;;;;;;5.00;1.55;;;17.20;42.90;;;;;;5101207;28;20012;-44
2021/12/11 09:45:34;;;;;;;4.75;1.60;;;17.30;42.80;;;;;;5100379;28;20012;-40
2021/12/11 09:48:07;;;;;;;3.78;1.25;;;17.30;42.70;;;;;;5098895;28;20111;-39
2021/12/11 09:50:43;;;;;;;5.85;1.67;;;17.30;42.60;;;;;;5100419;28;20012;-43
2021/12/11 09:53:10;;;;;;;4.57;1.40;;;17.20;42.60;;;;;;5099392;28;20509;-41
2021/12/11 09:55:39;;;;;;;4.78;1.83;;;17.20;42.70;;;;;;5064094;28;20024;-42
2021/12/11 09:58:09;;;;;;;3.97;1.58;;;17.20;42.80;;;;;;5082830;28;20066;-43
2021/12/11 10:00:43;;;;;;;5.55;1.83;;;17.20;42.80;;;;;;5100531;28;20056;-40
2021/12/11 10:03:09;;;;;;;5.07;1.95;;;17.10;42.70;;;;;;5083262;28;20061;-39
2021/12/11 10:05:45;;;;;;;2.67;1.40;;;17.10;42.70;;;;;;5065543;28;20024;-39
2021/12/11 10:08:37;;;;;;;4.28;1.58;;;17.20;42.80;;;;;;5099881;28;20008;-42
2021/12/11 10:11:17;;;;;;;6.40;1.90;;;17.20;42.80;;;;;;5085540;28;20016;-42
2021/12/11 10:13:52;;;;;;;2.95;1.23;;;17.30;42.70;;;;;;5082941;28;20080;-39
2021/12/11 10:16:21;;;;;;;5.20;1.67;;;17.30;42.60;;;;;;5099963;28;20044;-38
2021/12/11 10:18:47;;;;;;;3.90;1.52;;;17.30;42.40;;;;;;5100436;28;20012;-41
2021/12/11 10:21:28;;;;;;;4.18;1.48;;;17.30;42.30;;;;;;5082091;28;20352;-39
2021/12/11 10:23:57;;;;;;;3.75;1.60;;;17.40;42.20;;;;;;5100074;28;20040;-39
2021/12/11 10:26:25;;;;;;;3.80;1.48;;;17.50;42.20;;;;;;5100303;28;20019;-41
2021/12/11 10:28:53;;;;;;;5.13;1.58;;;17.50;42.00;;;;;;5099277;28;20046;-40
2021/12/11 10:31:28;;;;;;;4.13;1.52;;;17.50;41.90;;;;;;5081010;28;20069;-40
2021/12/11 10:33:57;;;;;;;5.63;1.65;;;17.60;41.80;;;;;;5098916;28;20016;-38
2021/12/11 10:36:26;;;;;;;5.75;1.90;;;17.60;41.80;;;;;;5080295;28;20028;-39
2021/12/11 10:38:52;;;;;;;4.45;1.63;;;17.60;41.70;;;;;;5098440;28;20024;-41
2021/12/11 10:41:19;;;;;;;4.80;1.90;;;17.60;41.50;;;;;;5064099;28;20016;-40
2021/12/11 10:44:01;;;;;;;4.75;1.75;;;17.70;41.60;;;;;;5099441;28;20022;-40
2021/12/11 10:46:30;;;;;;;4.22;1.67;;;17.70;41.60;;;;;;5098661;28;20036;-39
2021/12/11 10:48:56;;;;;;;4.35;1.60;;;17.60;41.50;;;;;;5097823;28;20016;-38
2021/12/11 10:51:26;;;;;;;5.88;1.65;;;17.60;41.50;;;;;;5063899;28;20039;-39
2021/12/11 10:53:52;;;;;;;3.75;1.48;;;17.70;41.50;;;;;;5098441;28;20087;-44
2021/12/11 10:56:20;;;;;;;4.57;1.55;;;17.70;41.60;;;;;;5079946;28;20066;-40
2021/12/11 10:58:49;;;;;;;5.70;1.77;;;17.70;41.50;;;;;;5096918;28;20466;-39
2021/12/11 11:01:34;;;;;;;3.63;1.50;;;17.60;41.50;;;;;;5078588;28;20074;-39
2021/12/11 11:04:04;;;;;;;4.57;1.70;;;17.60;41.50;;;;;;5097428;28;20004;-40
2021/12/11 11:06:31;;;;;;;3.60;1.80;;;17.60;41.60;;;;;;5097316;28;20501;-39
2021/12/11 11:08:57;;;;;;;5.25;1.50;;;17.60;41.60;;;;;;5079838;28;20020;-38
2021/12/11 11:11:25;;;;;;;4.47;1.70;;;17.60;41.60;;;;;;5099228;28;20478;-39
2021/12/11 11:13:51;;;;;;;3.63;1.50;;;17.50;41.70;;;;;;5098843;28;20020;-39
2021/12/11 11:16:17;;;;;;;2.83;1.42;;;17.50;41.80;;;;;;5098371;28;20080;-43
2021/12/11 11:18:43;;;;;;;3.75;1.58;;;17.50;41.90;;;;;;5096300;28;20012;-42
2021/12/11 11:21:24;;;;;;;4.97;1.80;;;17.50;41.90;;;;;;5096147;28;20016;-38
2021/12/11 11:23:50;;;;;;;4.57;1.65;;;17.40;41.80;;;;;;5096708;28;20047;-39
2021/12/11 11:26:22;;;;;;;5.03;1.55;;;17.40;41.90;;;;;;5078248;28;20038;-40
2021/12/11 11:28:47;;;;;;;4.90;1.70;;;17.30;42.00;;;;;;5095784;28;20028;-39
2021/12/11 11:31:20;;;;;;;3.58;1.63;;;17.30;42.20;;;;;;5077687;28;20099;-39
2021/12/11 11:33:46;;;;;;;4.13;1.60;;;17.30;42.20;;;;;;5079608;28;20091;-39
2021/12/11 11:36:15;;;;;;;5.97;2.05;;;17.20;42.30;;;;;;5096444;28;20112;-40
2021/12/11 11:38:47;;;;;;;4.57;2.17;;;17.20;42.40;;;;;;5078885;28;20012;-38
2021/12/11 11:41:18;;;;;;;4.03;1.70;;;17.20;42.50;;;;;;5097669;28;20083;-39
2021/12/11 11:43:45;;;;;;;3.97;1.58;;;17.10;42.60;;;;;;5096814;28;20012;-39
2021/12/11 11:46:10;;;;;;;4.75;1.60;;;17.10;42.60;;;;;;5095988;28;20023;-38
2021/12/11 11:48:44;;;;;;;5.40;1.60;;;17.10;42.70;;;;;;5095662;28;20012;-39
2021/12/11 11:51:18;;;;;;;4.57;1.90;;;17.00;42.80;;;;;;5094901;28;20028;-38
2021/12/11 11:53:46;;;;;;;4.25;1.73;;;17.00;42.80;;;;;;5094300;28;20016;-38
2021/12/11 11:56:15;;;;;;;4.03;1.70;;;17.00;42.90;;;;;;5076952;28;20090;-39
2021/12/11 11:58:40;;;;;;;4.47;1.77;;;16.90;43.00;;;;;;5096177;28;20013;-38
2021/12/11 12:01:16;;;;;;;5.05;1.60;;;16.90;43.10;;;;;;5077201;28;20385;-40
2021/12/11 12:03:42;;;;;;;5.22;1.85;;;16.90;43.20;;;;;;5094764;28;20027;-39
2021/12/11 12:06:12;;;;;;;3.88;1.52;;;16.80;43.30;;;;;;5093977;28;20020;-39
2021/12/11 12:08:42;;;;;;;5.78;1.55;;;16.80;43.40;;;;;;5094225;28;20016;-38
2021/12/11 12:11:08;;;;;;;5.88;1.80;;;16.80;43.50;;;;;;5078856;28;20028;-39
2021/12/11 12:13:34;;;;;;;3.63;1.70;;;16.70;43.50;;;;;;5078394;28;20539;-39
2021/12/11 12:16:04;;;;;;;4.35;1.65;;;16.70;43.60;;;;;;5078993;28;20127;-41
2021/12/11 12:18:30;;;;;;;6.38;2.08;;;16.70;43.70;;;;;;5096699;28;20020;-38
2021/12/11 12:20:56;;;;;;;5.53;1.98;;;16.60;43.70;;;;;;5100693;28;20016;-38
2021/12/11 12:23:22;;;;;;;4.45;1.90;;;16.60;43.80;;;;;;5066611;28;20036;-39
2021/12/11 12:25:49;;;;;;;4.03;1.67;;;16.60;43.80;;;;;;5083244;28;20529;-41
2021/12/11 12:28:15;;;;;;;4.35;1.67;;;16.60;43.90;;;;;;5100941;28;20012;-40
2021/12/11 12:30:48;;;;;;;3.03;1.60;;;16.60;44.00;;;;;;5084331;28;20009;-39
2021/12/11 12:33:15;;;;;;;4.22;1.80;;;16.50;44.00;;;;;;5102293;28;20091;-41
2021/12/11 12:35:40;;;;;;;4.72;1.77;;;16.50;44.10;;;;;;5102182;28;20085;-41
2021/12/11 12:38:09;;;;;;;4.40;1.73;;;16.40;44.10;;;;;;5102140;28;20470;-45
2021/12/11 12:41:00;;;;;;;3.58;1.60;;;16.40;44.20;;;;;;5084128;28;20032;-45
2021/12/11 12:46:12;;;;;;;4.30;1.70;;;16.40;44.40;;;;;;5101376;28;20092;-39
2021/12/11 12:48:38;;;;;;;4.53;1.67;;;16.30;44.40;;;;;;5102093;28;20024;-43
2021/12/11 12:51:06;;;;;;;3.53;1.80;;;16.30;44.50;;;;;;5085100;28;20073;-42
2021/12/11 12:53:34;;;;;;;3.88;1.70;;;16.30;44.70;;;;;;5084138;28;20016;-43
2021/12/11 12:56:08;;;;;;;4.38;1.50;;;16.20;44.80;;;;;;5103434;28;20089;-40
2021/12/11 12:58:40;;;;;;;4.47;1.70;;;16.20;44.90;;;;;;5102435;28;20024;-40
2021/12/11 13:01:17;;;;;;;4.75;2.08;;;16.20;45.10;;;;;;5102166;28;20016;-39
2021/12/11 13:03:44;;;;;;;5.15;1.90;;;16.10;45.10;;;;;;5083560;28;20043;-43
2021/12/11 13:06:16;;;;;;;5.32;1.98;;;16.10;45.10;;;;;;5101947;28;20020;-39
2021/12/11 13:08:54;;;;;;;3.88;1.80;;;16.00;45.20;;;;;;5102695;28;20017;-38
2021/12/11 13:11:23;;;;;;;5.95;1.88;;;16.10;45.30;;;;;;5101863;28;20016;-45
2021/12/11 13:13:50;;;;;;;4.90;1.90;;;16.00;45.30;;;;;;5100950;28;20031;-39
2021/12/11 13:16:25;;;;;;;4.63;1.95;;;16.00;45.40;;;;;;5099760;28;20118;-41
2021/12/11 13:18:59;;;;;;;4.82;1.95;;;16.00;45.40;;;;;;5082337;28;20531;-41
2021/12/11 13:21:37;;;;;;;5.35;2.10;;;16.00;45.50;;;;;;5081711;28;20116;-40